Time;durP1;ratioP1;P1;durP2;ratioP2;P2;SDS_P1;SDS_P2;PMS_P1;PMS_P2;Temp;Humidity;BMP_temperature;BMP_pressure;BME280_temperature;BME280_humidity;BME280_pressure;Samples;Min_cycle;Max_cycle;Signal;HPM_P1;HPM_P2
2021/11/13 00:02:51;;;;;;;30.83;24.00;;;22.10;59.70;;;;;;31501101;28;20044;-43
2021/11/13 00:17:54;;;;;;;28.88;23.05;;;22.40;59.30;;;;;;31434718;28;20076;-46
2021/11/13 00:32:56;;;;;;;27.75;22.98;;;22.90;59.10;;;;;;31369211;28;20071;-49
2021/11/13 00:47:58;;;;;;;24.85;20.23;;;22.80;58.70;;;;;;31370552;28;20077;-36
2021/11/13 01:03:00;;;;;;;23.70;20.23;;;22.60;58.90;;;;;;31372668;28;20041;-43
2021/11/13 01:18:03;;;;;;;24.05;18.98;;;22.60;59.30;;;;;;31377043;28;20049;-37
2021/11/13 01:33:05;;;;;;;19.83;16.98;;;22.40;59.30;;;;;;31387212;28;20061;-44
2021/11/13 01:48:07;;;;;;;22.17;17.67;;;22.30;59.10;;;;;;31386239;28;20058;-40
2021/11/13 02:03:11;;;;;;;17.88;15.55;;;22.30;59.40;;;;;;31386098;28;20061;-37
2021/11/13 02:18:13;;;;;;;17.60;15.63;;;22.20;59.80;;;;;;31384916;28;20128;-38
2021/11/13 02:33:15;;;;;;;18.42;14.52;;;22.30;59.50;;;;;;31383021;28;20101;-39
2021/11/13 02:48:18;;;;;;;16.80;13.15;;;22.80;59.80;;;;;;31380337;28;20053;-48
2021/11/13 03:03:21;;;;;;;15.32;12.73;;;22.90;59.40;;;;;;31376782;28;20061;-48
2021/11/13 03:18:23;;;;;;;15.43;11.80;;;22.80;59.10;;;;;;31414997;28;20041;-50
2021/11/13 03:33:26;;;;;;;13.68;11.80;;;22.70;59.30;;;;;;31373730;28;20069;-37
2021/11/13 03:48:28;;;;;;;12.77;11.40;;;22.60;59.40;;;;;;31374158;28;20107;-36
2021/11/13 04:03:30;;;;;;;12.32;10.13;;;22.40;59.40;;;;;;31374458;28;20065;-42
2021/11/13 04:18:32;;;;;;;12.02;10.73;;;22.40;59.40;;;;;;31372455;28;20121;-46
2021/11/13 04:33:35;;;;;;;11.60;9.48;;;22.30;59.50;;;;;;31394016;28;20104;-43
2021/11/13 04:48:37;;;;;;;10.70;8.88;;;22.20;59.90;;;;;;31379719;28;20053;-45
2021/11/13 05:03:39;;;;;;;11.18;9.38;;;22.40;60.00;;;;;;31392774;28;20037;-38
2021/11/13 05:18:41;;;;;;;9.20;7.97;;;22.90;59.90;;;;;;31390077;28;20091;-42
2021/11/13 05:33:43;;;;;;;10.73;8.10;;;22.90;59.20;;;;;;31386560;28;20076;-38
2021/11/13 05:48:45;;;;;;;13.65;8.90;;;22.90;59.40;;;;;;31384687;28;20057;-38
2021/11/13 06:03:47;;;;;;;19.67;10.30;;;22.80;60.50;;;;;;31382109;28;20041;-36
2021/11/13 06:18:49;;;;;;;26.52;17.77;;;22.70;61.90;;;;;;31392710;28;20041;-45
2021/11/13 06:33:51;;;;;;;30.25;22.23;;;22.50;59.50;;;;;;31496485;28;20055;-44
2021/11/13 06:48:53;;;;;;;30.25;20.33;;;21.90;49.30;;;;;;31453279;28;20061;-45
2021/11/13 07:03:55;;;;;;;39.70;21.15;;;22.30;54.50;;;;;;31501961;28;20037;-37
2021/11/13 07:18:57;;;;;;;30.55;18.05;;;22.70;55.40;;;;;;31495863;28;20068;-45
2021/11/13 07:33:59;;;;;;;26.83;16.60;;;22.70;56.00;;;;;;31498610;28;20049;-37
2021/11/13 07:49:02;;;;;;;23.02;15.77;;;22.60;56.30;;;;;;31499991;28;20132;-43
2021/11/13 08:04:04;;;;;;;26.33;15.13;;;22.60;56.70;;;;;;31495103;28;20064;-43
2021/11/13 08:19:07;;;;;;;24.08;14.65;;;22.50;56.90;;;;;;31495726;28;20052;-43
2021/11/13 08:34:10;;;;;;;21.52;13.70;;;22.40;57.00;;;;;;31512842;28;20045;-44
2021/11/13 08:49:16;;;;;;;18.90;12.90;;;22.70;56.90;;;;;;31518970;28;20060;-44
2021/11/13 09:04:18;;;;;;;19.23;12.15;;;22.80;56.70;;;;;;31516859;28;20041;-47
2021/11/13 09:19:20;;;;;;;17.60;10.85;;;22.70;56.80;;;;;;31515962;28;20059;-43
2021/11/13 09:34:23;;;;;;;15.98;10.48;;;22.60;57.10;;;;;;31513648;28;20059;-36
2021/11/13 09:49:28;;;;;;;17.25;9.80;;;22.50;57.40;;;;;;31499976;28;20064;-41
2021/11/13 10:04:31;;;;;;;20.98;10.20;;;22.40;58.10;;;;;;31382248;28;20075;-44
2021/11/13 10:19:33;;;;;;;17.45;11.95;;;22.40;58.10;;;;;;31376622;28;20144;-46
2021/11/13 10:34:40;;;;;;;26.73;16.75;;;22.70;58.20;;;;;;31372583;28;20092;-40
2021/11/13 10:49:44;;;;;;;28.83;18.00;;;22.90;58.20;;;;;;31372159;28;20075;-38
2021/11/13 11:04:47;;;;;;;26.92;18.45;;;22.90;58.40;;;;;;31369611;28;20101;-47
2021/11/13 11:19:51;;;;;;;28.10;16.83;;;22.80;58.70;;;;;;31371391;28;20052;-47
2021/11/13 11:34:55;;;;;;;33.33;18.23;;;22.70;58.40;;;;;;31366648;28;20128;-36
2021/11/13 11:50:02;;;;;;;28.85;16.67;;;22.50;58.90;;;;;;31020149;28;10000829;-43
2021/11/13 12:05:11;;;;;;;22.60;15.10;;;22.40;59.00;;;;;;31363092;28;20102;-37
2021/11/13 12:20:18;;;;;;;19.17;13.05;;;22.40;59.30;;;;;;31362692;28;20041;-49
2021/11/13 12:35:20;;;;;;;19.02;12.23;;;22.50;59.10;;;;;;31366995;28;20073;-40
2021/11/13 12:50:22;;;;;;;14.07;9.93;;;22.80;58.50;;;;;;31369764;28;20053;-38
2021/11/13 13:05:24;;;;;;;14.48;10.27;;;22.90;58.30;;;;;;31372352;28;20401;-39
2021/11/13 13:20:33;;;;;;;17.85;9.75;;;22.80;58.30;;;;;;31386722;28;20060;-35
2021/11/13 13:35:40;;;;;;;10.93;8.50;;;22.70;58.30;;;;;;31389895;28;20129;-41
2021/11/13 13:50:46;;;;;;;11.95;8.32;;;22.50;58.30;;;;;;31380734;28;20053;-42
2021/11/13 14:05:49;;;;;;;17.10;8.85;;;22.50;58.30;;;;;;31384822;28;20068;-39
2021/11/13 14:20:51;;;;;;;18.38;8.38;;;22.50;58.80;;;;;;31383752;28;20042;-38
2021/11/13 14:35:53;;;;;;;22.25;8.00;;;22.40;59.60;;;;;;31380530;28;20045;-38
2021/11/13 14:50:55;;;;;;;12.57;6.03;;;22.90;59.90;;;;;;31379386;28;20057;-38
2021/11/13 15:06:00;;;;;;;12.77;6.60;;;22.90;59.70;;;;;;31364164;28;20049;-38
2021/11/13 15:21:05;;;;;;;26.92;17.90;;;22.90;59.80;;;;;;31304827;28;20045;-43
2021/11/13 15:36:14;;;;;;;25.88;13.88;;;22.70;57.90;;;;;;31373801;28;20113;-44
2021/11/13 15:51:18;;;;;;;57.72;29.20;;;22.70;58.20;;;;;;31013497;28;10000983;-44
2021/11/13 16:06:20;;;;;;;54.03;28.90;;;22.70;59.40;;;;;;31363149;28;20037;-48
2021/11/13 16:21:25;;;;;;;53.97;27.92;;;22.60;59.90;;;;;;31321937;28;20098;-47
2021/11/13 16:36:27;;;;;;;49.42;26.88;;;22.50;60.80;;;;;;31302395;28;20112;-49
2021/11/13 16:51:36;;;;;;;45.03;24.63;;;22.40;60.80;;;;;;31371785;28;20046;-47
2021/11/13 17:06:40;;;;;;;35.38;22.42;;;22.40;60.90;;;;;;31380618;28;20076;-43
2021/11/13 17:21:45;;;;;;;39.67;21.70;;;22.50;61.00;;;;;;31380920;28;20048;-43
2021/11/13 17:36:47;;;;;;;38.95;20.55;;;22.40;60.60;;;;;;31389211;28;20928;-37
2021/11/13 17:51:50;;;;;;;31.77;18.48;;;22.30;60.40;;;;;;31388673;28;20105;-47
2021/11/13 18:06:52;;;;;;;33.45;18.33;;;22.40;61.00;;;;;;31382546;28;20096;-46
2021/11/13 18:21:54;;;;;;;35.55;16.70;;;22.90;61.40;;;;;;31315497;28;20041;-45
2021/11/13 18:36:57;;;;;;;28.67;18.17;;;23.00;62.50;;;;;;31022206;28;10000643;-43
2021/11/13 18:51:59;;;;;;;26.58;16.23;;;23.10;63.70;;;;;;31370295;28;20050;-41
2021/11/13 19:07:01;;;;;;;23.33;14.75;;;23.10;63.90;;;;;;31401763;28;20041;-38
2021/11/13 19:22:04;;;;;;;29.40;15.45;;;23.00;64.00;;;;;;31392591;28;20077;-36
2021/11/13 19:37:07;;;;;;;24.42;15.70;;;22.90;63.80;;;;;;31448034;28;20122;-36
2021/11/13 19:52:13;;;;;;;19.92;12.25;;;22.80;64.90;;;;;;31484523;28;20045;-38
2021/11/13 20:07:15;;;;;;;23.50;13.57;;;22.80;63.60;;;;;;31487126;28;20044;-38
2021/11/13 20:22:20;;;;;;;22.38;13.27;;;22.70;64.50;;;;;;31487776;28;20131;-39
2021/11/13 20:37:25;;;;;;;23.60;12.45;;;22.60;64.40;;;;;;31424846;28;20049;-36
2021/11/13 20:52:27;;;;;;;19.58;11.80;;;22.60;64.60;;;;;;31519809;28;20135;-35
2021/11/13 21:07:30;;;;;;;19.40;10.73;;;22.50;64.70;;;;;;31518145;28;20056;-37
2021/11/13 21:22:33;;;;;;;15.52;10.48;;;22.40;64.40;;;;;;31515169;28;20041;-41
2021/11/13 21:37:35;;;;;;;18.20;10.05;;;22.40;64.30;;;;;;31515232;28;20069;-36
2021/11/13 21:52:54;;;;;;;11.73;9.20;;;22.40;64.30;;;;;;31515156;28;20053;-36
2021/11/13 22:07:57;;;;;;;12.65;9.45;;;22.40;64.30;;;;;;31513203;28;20074;-35
2021/11/13 22:23:03;;;;;;;14.02;9.25;;;22.30;64.30;;;;;;31510363;28;20123;-35
2021/11/13 22:38:06;;;;;;;13.77;8.45;;;22.30;64.20;;;;;;31509962;28;20060;-35
2021/11/13 22:53:09;;;;;;;11.98;8.55;;;22.20;64.80;;;;;;31506963;28;20068;-42
2021/11/13 23:08:11;;;;;;;12.55;8.02;;;22.20;64.50;;;;;;31502693;28;20122;-43
2021/11/13 23:23:15;;;;;;;9.90;7.10;;;22.30;64.60;;;;;;31500165;28;20190;-44
2021/11/13 23:38:18;;;;;;;8.70;6.78;;;22.80;63.90;;;;;;31499005;28;20072;-42
2021/11/13 23:53:21;;;;;;;15.13;7.25;;;22.80;63.50;;;;;;31497651;28;20068;-43
